sensor_id;sensor_type;location;lat;lon;timestamp;temperature;humidity
15296;DHT22;7749;49.964;7.890;2023-03-03T00:01:42;3.70;99.90
15296;DHT22;7749;49.964;7.890;2023-03-03T00:04:10;3.60;99.90
15296;DHT22;7749;49.964;7.890;2023-03-03T00:06:38;3.50;99.90
15296;DHT22;7749;49.964;7.890;2023-03-03T00:09:05;3.50;99.90
15296;DHT22;7749;49.964;7.890;2023-03-03T00:11:33;3.60;99.90
15296;DHT22;7749;49.964;7.890;2023-03-03T00:14:01;3.60;99.90
15296;DHT22;7749;49.964;7.890;2023-03-03T00:16:33;3.60;99.90
15296;DHT22;7749;49.964;7.890;2023-03-03T00:19:02;3.60;99.90
15296;DHT22;7749;49.964;7.890;2023-03-03T00:21:41;3.60;99.90
15296;DHT22;7749;49.964;7.890;2023-03-03T00:24:34;3.70;99.90
15296;DHT22;7749;49.964;7.890;2023-03-03T00:27:35;3.70;99.90
15296;DHT22;7749;49.964;7.890;2023-03-03T00:30:17;3.80;99.90
15296;DHT22;7749;49.964;7.890;2023-03-03T00:32:46;3.80;99.90
15296;DHT22;7749;49.964;7.890;2023-03-03T00:37:58;3.40;99.90
15296;DHT22;7749;49.964;7.890;2023-03-03T00:40:38;3.40;99.90
15296;DHT22;7749;49.964;7.890;2023-03-03T00:51:29;3.00;99.90
15296;DHT22;7749;49.964;7.890;2023-03-03T00:53:57;3.10;99.90
15296;DHT22;7749;49.964;7.890;2023-03-03T00:56:26;3.10;99.90
15296;DHT22;7749;49.964;7.890;2023-03-03T00:58:54;3.10;99.90
15296;DHT22;7749;49.964;7.890;2023-03-03T01:01:21;3.20;99.90
15296;DHT22;7749;49.964;7.890;2023-03-03T01:03:52;3.20;99.90
15296;DHT22;7749;49.964;7.890;2023-03-03T01:06:19;3.10;99.90
15296;DHT22;7749;49.964;7.890;2023-03-03T01:08:47;3.20;99.90
15296;DHT22;7749;49.964;7.890;2023-03-03T01:11:20;3.20;99.90
15296;DHT22;7749;49.964;7.890;2023-03-03T01:13:50;3.20;99.90
15296;DHT22;7749;49.964;7.890;2023-03-03T01:16:19;3.20;99.90
15296;DHT22;7749;49.964;7.890;2023-03-03T01:18:47;3.20;99.90
15296;DHT22;7749;49.964;7.890;2023-03-03T01:21:15;3.20;99.90
15296;DHT22;7749;49.964;7.890;2023-03-03T01:23:43;3.20;99.90
15296;DHT22;7749;49.964;7.890;2023-03-03T01:26:11;3.20;99.90
15296;DHT22;7749;49.964;7.890;2023-03-03T01:28:38;3.20;99.90
15296;DHT22;7749;49.964;7.890;2023-03-03T01:31:06;3.10;99.90
15296;DHT22;7749;49.964;7.890;2023-03-03T01:33:35;3.10;99.90
15296;DHT22;7749;49.964;7.890;2023-03-03T01:36:03;3.00;99.90
15296;DHT22;7749;49.964;7.890;2023-03-03T01:38:32;3.00;99.90
15296;DHT22;7749;49.964;7.890;2023-03-03T01:41:02;3.00;99.90
15296;DHT22;7749;49.964;7.890;2023-03-03T01:43:30;3.10;99.90
15296;DHT22;7749;49.964;7.890;2023-03-03T01:48:30;3.00;99.90
15296;DHT22;7749;49.964;7.890;2023-03-03T01:53:45;2.90;99.90
15296;DHT22;7749;49.964;7.890;2023-03-03T01:56:14;2.90;99.90
15296;DHT22;7749;49.964;7.890;2023-03-03T01:58:49;2.80;99.90
15296;DHT22;7749;49.964;7.890;2023-03-03T02:01:25;2.60;99.90
15296;DHT22;7749;49.964;7.890;2023-03-03T02:03:53;2.60;99.90
15296;DHT22;7749;49.964;7.890;2023-03-03T02:06:28;2.50;99.90
15296;DHT22;7749;49.964;7.890;2023-03-03T02:09:26;2.50;99.90
15296;DHT22;7749;49.964;7.890;2023-03-03T02:11:58;2.50;99.90
15296;DHT22;7749;49.964;7.890;2023-03-03T02:14:27;2.60;99.90
15296;DHT22;7749;49.964;7.890;2023-03-03T02:16:55;2.60;99.90
15296;DHT22;7749;49.964;7.890;2023-03-03T02:19:50;2.60;99.90
15296;DHT22;7749;49.964;7.890;2023-03-03T02:22:25;2.40;99.90
15296;DHT22;7749;49.964;7.890;2023-03-03T02:25:00;2.30;99.90
15296;DHT22;7749;49.964;7.890;2023-03-03T02:27:30;2.30;99.90
15296;DHT22;7749;49.964;7.890;2023-03-03T02:30:08;2.40;99.90
15296;DHT22;7749;49.964;7.890;2023-03-03T02:32:37;2.40;99.90
15296;DHT22;7749;49.964;7.890;2023-03-03T02:35:29;2.30;99.90
15296;DHT22;7749;49.964;7.890;2023-03-03T02:38:04;2.30;99.90
15296;DHT22;7749;49.964;7.890;2023-03-03T02:40:36;2.10;99.90
15296;DHT22;7749;49.964;7.890;2023-03-03T02:43:06;2.10;99.90
15296;DHT22;7749;49.964;7.890;2023-03-03T02:45:42;2.10;99.90
15296;DHT22;7749;49.964;7.890;2023-03-03T02:48:10;2.20;99.90
15296;DHT22;7749;49.964;7.890;2023-03-03T02:50:38;2.20;99.90
15296;DHT22;7749;49.964;7.890;2023-03-03T02:53:05;2.20;99.90
15296;DHT22;7749;49.964;7.890;2023-03-03T02:55:33;2.20;99.90
15296;DHT22;7749;49.964;7.890;2023-03-03T02:58:01;2.10;99.90
15296;DHT22;7749;49.964;7.890;2023-03-03T03:00:28;2.00;99.90
15296;DHT22;7749;49.964;7.890;2023-03-03T03:02:56;1.90;99.90
15296;DHT22;7749;49.964;7.890;2023-03-03T03:05:24;1.90;99.90
15296;DHT22;7749;49.964;7.890;2023-03-03T03:07:52;1.80;99.90
15296;DHT22;7749;49.964;7.890;2023-03-03T03:10:19;1.70;99.90
15296;DHT22;7749;49.964;7.890;2023-03-03T03:12:48;1.70;99.90
15296;DHT22;7749;49.964;7.890;2023-03-03T03:15:16;1.70;99.90
15296;DHT22;7749;49.964;7.890;2023-03-03T03:17:44;1.80;99.90
15296;DHT22;7749;49.964;7.890;2023-03-03T03:20:11;1.70;99.90
15296;DHT22;7749;49.964;7.890;2023-03-03T03:22:39;1.80;99.90
15296;DHT22;7749;49.964;7.890;2023-03-03T03:25:07;1.70;99.90
15296;DHT22;7749;49.964;7.890;2023-03-03T03:27:35;1.80;99.90
15296;DHT22;7749;49.964;7.890;2023-03-03T03:30:03;1.80;99.90
15296;DHT22;7749;49.964;7.890;2023-03-03T03:32:30;1.90;99.90
15296;DHT22;7749;49.964;7.890;2023-03-03T03:34:58;1.90;99.90
15296;DHT22;7749;49.964;7.890;2023-03-03T03:37:26;1.90;99.90
15296;DHT22;7749;49.964;7.890;2023-03-03T03:39:54;1.80;99.90
15296;DHT22;7749;49.964;7.890;2023-03-03T03:42:22;1.80;99.90
15296;DHT22;7749;49.964;7.890;2023-03-03T03:44:50;1.70;99.90
15296;DHT22;7749;49.964;7.890;2023-03-03T03:47:18;1.70;99.90
15296;DHT22;7749;49.964;7.890;2023-03-03T03:49:45;1.60;99.90
15296;DHT22;7749;49.964;7.890;2023-03-03T03:52:13;1.60;99.90
15296;DHT22;7749;49.964;7.890;2023-03-03T03:54:41;1.60;99.90
15296;DHT22;7749;49.964;7.890;2023-03-03T03:57:09;1.60;99.90
15296;DHT22;7749;49.964;7.890;2023-03-03T03:59:36;1.60;99.90
15296;DHT22;7749;49.964;7.890;2023-03-03T04:02:05;1.60;99.90
15296;DHT22;7749;49.964;7.890;2023-03-03T04:04:33;1.70;99.90
15296;DHT22;7749;49.964;7.890;2023-03-03T04:07:00;1.60;99.90
15296;DHT22;7749;49.964;7.890;2023-03-03T04:09:28;1.70;99.90
15296;DHT22;7749;49.964;7.890;2023-03-03T04:11:56;1.60;99.90
15296;DHT22;7749;49.964;7.890;2023-03-03T04:14:24;1.60;99.90
15296;DHT22;7749;49.964;7.890;2023-03-03T04:16:51;1.50;99.90
15296;DHT22;7749;49.964;7.890;2023-03-03T04:19:19;1.50;99.90
15296;DHT22;7749;49.964;7.890;2023-03-03T04:21:47;1.50;99.90
15296;DHT22;7749;49.964;7.890;2023-03-03T04:24:14;1.60;99.90
15296;DHT22;7749;49.964;7.890;2023-03-03T04:26:42;1.50;99.90
15296;DHT22;7749;49.964;7.890;2023-03-03T04:29:10;1.60;99.90
15296;DHT22;7749;49.964;7.890;2023-03-03T04:31:38;1.70;99.90
15296;DHT22;7749;49.964;7.890;2023-03-03T04:34:05;1.70;99.90
15296;DHT22;7749;49.964;7.890;2023-03-03T04:36:33;1.70;99.90
15296;DHT22;7749;49.964;7.890;2023-03-03T04:39:01;1.70;99.90
15296;DHT22;7749;49.964;7.890;2023-03-03T04:41:28;1.70;99.90
15296;DHT22;7749;49.964;7.890;2023-03-03T04:43:56;1.60;99.90
15296;DHT22;7749;49.964;7.890;2023-03-03T04:46:25;1.50;99.90
15296;DHT22;7749;49.964;7.890;2023-03-03T04:48:53;1.50;99.90
15296;DHT22;7749;49.964;7.890;2023-03-03T04:51:22;1.50;99.90
15296;DHT22;7749;49.964;7.890;2023-03-03T04:53:50;1.50;99.90
15296;DHT22;7749;49.964;7.890;2023-03-03T04:56:17;1.60;99.90
15296;DHT22;7749;49.964;7.890;2023-03-03T04:58:45;1.40;99.90
15296;DHT22;7749;49.964;7.890;2023-03-03T05:01:13;1.30;99.90
15296;DHT22;7749;49.964;7.890;2023-03-03T05:03:41;1.30;99.90
15296;DHT22;7749;49.964;7.890;2023-03-03T05:06:09;1.30;99.90
15296;DHT22;7749;49.964;7.890;2023-03-03T05:08:36;1.30;99.90
15296;DHT22;7749;49.964;7.890;2023-03-03T05:11:04;1.50;99.90
15296;DHT22;7749;49.964;7.890;2023-03-03T05:13:32;1.40;99.90
15296;DHT22;7749;49.964;7.890;2023-03-03T05:16:00;1.30;99.90
15296;DHT22;7749;49.964;7.890;2023-03-03T05:18:27;1.40;99.90
15296;DHT22;7749;49.964;7.890;2023-03-03T05:20:55;1.40;99.90
15296;DHT22;7749;49.964;7.890;2023-03-03T05:23:23;1.30;99.90
15296;DHT22;7749;49.964;7.890;2023-03-03T05:25:51;1.30;99.90
15296;DHT22;7749;49.964;7.890;2023-03-03T05:28:19;1.30;99.90
15296;DHT22;7749;49.964;7.890;2023-03-03T05:30:46;1.30;99.90
15296;DHT22;7749;49.964;7.890;2023-03-03T05:33:16;1.20;99.90
15296;DHT22;7749;49.964;7.890;2023-03-03T05:35:44;1.20;99.90
15296;DHT22;7749;49.964;7.890;2023-03-03T05:38:14;1.20;99.90
15296;DHT22;7749;49.964;7.890;2023-03-03T05:40:42;1.20;99.90
15296;DHT22;7749;49.964;7.890;2023-03-03T05:43:10;1.20;99.90
15296;DHT22;7749;49.964;7.890;2023-03-03T05:45:38;1.20;99.90
15296;DHT22;7749;49.964;7.890;2023-03-03T05:48:06;1.20;99.90
15296;DHT22;7749;49.964;7.890;2023-03-03T05:50:34;1.10;99.90
15296;DHT22;7749;49.964;7.890;2023-03-03T05:53:03;1.20;99.90
15296;DHT22;7749;49.964;7.890;2023-03-03T05:55:30;1.20;99.90
15296;DHT22;7749;49.964;7.890;2023-03-03T05:57:58;1.10;99.90
15296;DHT22;7749;49.964;7.890;2023-03-03T06:00:26;1.20;99.90
15296;DHT22;7749;49.964;7.890;2023-03-03T06:02:54;1.20;99.90
15296;DHT22;7749;49.964;7.890;2023-03-03T06:05:22;1.20;99.90
15296;DHT22;7749;49.964;7.890;2023-03-03T06:07:50;1.10;99.90
15296;DHT22;7749;49.964;7.890;2023-03-03T06:10:18;1.00;99.90
15296;DHT22;7749;49.964;7.890;2023-03-03T06:12:45;1.00;99.90
15296;DHT22;7749;49.964;7.890;2023-03-03T06:15:13;1.00;99.90
15296;DHT22;7749;49.964;7.890;2023-03-03T06:17:41;1.10;99.90
15296;DHT22;7749;49.964;7.890;2023-03-03T06:20:10;1.20;99.90
15296;DHT22;7749;49.964;7.890;2023-03-03T06:22:38;1.30;99.90
15296;DHT22;7749;49.964;7.890;2023-03-03T06:25:06;1.30;99.90
15296;DHT22;7749;49.964;7.890;2023-03-03T06:27:34;1.30;99.90
15296;DHT22;7749;49.964;7.890;2023-03-03T06:30:03;1.20;99.90
15296;DHT22;7749;49.964;7.890;2023-03-03T06:32:31;1.10;99.90
15296;DHT22;7749;49.964;7.890;2023-03-03T06:34:59;1.20;99.90
15296;DHT22;7749;49.964;7.890;2023-03-03T06:37:27;1.20;99.90
15296;DHT22;7749;49.964;7.890;2023-03-03T06:39:54;1.30;99.90
15296;DHT22;7749;49.964;7.890;2023-03-03T06:42:22;1.40;99.90
15296;DHT22;7749;49.964;7.890;2023-03-03T06:44:51;1.50;99.90
15296;DHT22;7749;49.964;7.890;2023-03-03T06:47:19;1.50;99.90
15296;DHT22;7749;49.964;7.890;2023-03-03T06:49:46;1.60;99.90
15296;DHT22;7749;49.964;7.890;2023-03-03T06:52:21;1.60;99.90
15296;DHT22;7749;49.964;7.890;2023-03-03T06:54:53;1.60;99.90
15296;DHT22;7749;49.964;7.890;2023-03-03T06:57:32;1.70;99.90
15296;DHT22;7749;49.964;7.890;2023-03-03T07:00:19;1.60;99.90
15296;DHT22;7749;49.964;7.890;2023-03-03T07:03:03;1.60;99.90
15296;DHT22;7749;49.964;7.890;2023-03-03T07:05:32;1.60;99.90
15296;DHT22;7749;49.964;7.890;2023-03-03T07:08:01;1.70;99.90
15296;DHT22;7749;49.964;7.890;2023-03-03T07:10:29;1.70;99.90
15296;DHT22;7749;49.964;7.890;2023-03-03T07:13:19;1.70;99.90
15296;DHT22;7749;49.964;7.890;2023-03-03T07:15:48;1.80;99.90
15296;DHT22;7749;49.964;7.890;2023-03-03T07:21:21;1.90;99.90
15296;DHT22;7749;49.964;7.890;2023-03-03T07:23:51;2.00;99.90
15296;DHT22;7749;49.964;7.890;2023-03-03T07:26:20;2.00;99.90
15296;DHT22;7749;49.964;7.890;2023-03-03T07:31:48;2.30;99.90
15296;DHT22;7749;49.964;7.890;2023-03-03T07:34:20;2.30;99.90
15296;DHT22;7749;49.964;7.890;2023-03-03T07:37:00;2.40;99.90
15296;DHT22;7749;49.964;7.890;2023-03-03T07:39:36;2.70;99.90
15296;DHT22;7749;49.964;7.890;2023-03-03T07:44:37;2.80;99.90
15296;DHT22;7749;49.964;7.890;2023-03-03T07:47:18;2.70;99.90
15296;DHT22;7749;49.964;7.890;2023-03-03T07:49:48;2.80;99.90
15296;DHT22;7749;49.964;7.890;2023-03-03T07:52:39;2.90;99.90
15296;DHT22;7749;49.964;7.890;2023-03-03T08:03:23;3.30;99.90
15296;DHT22;7749;49.964;7.890;2023-03-03T08:05:51;3.20;99.90
15296;DHT22;7749;49.964;7.890;2023-03-03T08:08:34;3.20;99.90
15296;DHT22;7749;49.964;7.890;2023-03-03T08:11:03;3.20;99.90
15296;DHT22;7749;49.964;7.890;2023-03-03T08:13:35;3.30;99.90
15296;DHT22;7749;49.964;7.890;2023-03-03T08:18:42;3.50;99.90
15296;DHT22;7749;49.964;7.890;2023-03-03T08:21:21;3.60;99.90
15296;DHT22;7749;49.964;7.890;2023-03-03T08:23:49;3.40;99.90
15296;DHT22;7749;49.964;7.890;2023-03-03T08:26:22;3.40;99.90
15296;DHT22;7749;49.964;7.890;2023-03-03T08:28:50;3.30;99.90
15296;DHT22;7749;49.964;7.890;2023-03-03T08:31:19;3.30;99.90
15296;DHT22;7749;49.964;7.890;2023-03-03T08:34:06;3.10;99.90
15296;DHT22;7749;49.964;7.890;2023-03-03T08:36:34;3.10;99.90
15296;DHT22;7749;49.964;7.890;2023-03-03T08:39:03;3.00;99.90
15296;DHT22;7749;49.964;7.890;2023-03-03T08:41:31;3.00;99.90
15296;DHT22;7749;49.964;7.890;2023-03-03T08:43:59;2.80;99.90
15296;DHT22;7749;49.964;7.890;2023-03-03T08:46:26;2.80;99.90
15296;DHT22;7749;49.964;7.890;2023-03-03T08:48:55;2.80;99.90
15296;DHT22;7749;49.964;7.890;2023-03-03T08:51:22;2.90;99.90
15296;DHT22;7749;49.964;7.890;2023-03-03T08:53:51;2.90;99.90
15296;DHT22;7749;49.964;7.890;2023-03-03T08:56:19;2.90;99.90
15296;DHT22;7749;49.964;7.890;2023-03-03T08:58:47;3.00;99.90
15296;DHT22;7749;49.964;7.890;2023-03-03T09:01:31;3.10;99.90
15296;DHT22;7749;49.964;7.890;2023-03-03T09:03:59;3.10;99.90
15296;DHT22;7749;49.964;7.890;2023-03-03T09:06:27;3.00;99.90
15296;DHT22;7749;49.964;7.890;2023-03-03T09:08:54;3.00;99.90
15296;DHT22;7749;49.964;7.890;2023-03-03T09:11:26;3.10;99.90
15296;DHT22;7749;49.964;7.890;2023-03-03T09:14:15;3.10;99.90
15296;DHT22;7749;49.964;7.890;2023-03-03T09:16:49;3.20;99.90
15296;DHT22;7749;49.964;7.890;2023-03-03T09:19:27;3.50;99.90
15296;DHT22;7749;49.964;7.890;2023-03-03T09:22:00;3.60;99.90
15296;DHT22;7749;49.964;7.890;2023-03-03T09:24:30;3.40;99.90
15296;DHT22;7749;49.964;7.890;2023-03-03T09:27:13;3.40;99.90
15296;DHT22;7749;49.964;7.890;2023-03-03T09:29:44;3.50;99.90
15296;DHT22;7749;49.964;7.890;2023-03-03T09:32:34;3.60;99.90
15296;DHT22;7749;49.964;7.890;2023-03-03T09:37:55;3.50;99.90
15296;DHT22;7749;49.964;7.890;2023-03-03T09:43:04;3.60;99.90
15296;DHT22;7749;49.964;7.890;2023-03-03T09:48:24;3.50;99.90
15296;DHT22;7749;49.964;7.890;2023-03-03T09:51:31;3.50;99.90
15296;DHT22;7749;49.964;7.890;2023-03-03T09:54:21;3.60;99.90
15296;DHT22;7749;49.964;7.890;2023-03-03T09:57:10;3.80;99.90
15296;DHT22;7749;49.964;7.890;2023-03-03T10:02:44;3.70;99.90
15296;DHT22;7749;49.964;7.890;2023-03-03T10:05:28;4.00;99.90
15296;DHT22;7749;49.964;7.890;2023-03-03T10:13:39;4.20;99.90
15296;DHT22;7749;49.964;7.890;2023-03-03T10:19:27;4.30;99.90
15296;DHT22;7749;49.964;7.890;2023-03-03T10:22:06;4.60;99.90
15296;DHT22;7749;49.964;7.890;2023-03-03T10:27:35;4.40;99.90
15296;DHT22;7749;49.964;7.890;2023-03-03T10:42:03;4.70;99.90
15296;DHT22;7749;49.964;7.890;2023-03-03T10:47:33;4.70;99.90
15296;DHT22;7749;49.964;7.890;2023-03-03T10:50:18;4.90;99.90
15296;DHT22;7749;49.964;7.890;2023-03-03T10:55:37;5.20;99.90
15296;DHT22;7749;49.964;7.890;2023-03-03T11:03:49;5.50;99.90
15296;DHT22;7749;49.964;7.890;2023-03-03T11:09:17;6.30;99.90
15296;DHT22;7749;49.964;7.890;2023-03-03T11:12:06;7.60;99.90
15296;DHT22;7749;49.964;7.890;2023-03-03T11:14:54;9.40;99.90
15296;DHT22;7749;49.964;7.890;2023-03-03T11:25:29;9.80;99.90
15296;DHT22;7749;49.964;7.890;2023-03-03T11:28:05;9.50;99.90
15296;DHT22;7749;49.964;7.890;2023-03-03T11:36:20;10.90;99.90
15296;DHT22;7749;49.964;7.890;2023-03-03T11:46:52;11.20;99.90
15296;DHT22;7749;49.964;7.890;2023-03-03T11:49:40;12.60;99.90
15296;DHT22;7749;49.964;7.890;2023-03-03T11:55:01;11.30;99.90
15296;DHT22;7749;49.964;7.890;2023-03-03T12:01:07;11.90;99.90
15296;DHT22;7749;49.964;7.890;2023-03-03T12:06:45;10.30;99.90
15296;DHT22;7749;49.964;7.890;2023-03-03T12:12:05;12.20;99.90
15296;DHT22;7749;49.964;7.890;2023-03-03T12:25:40;11.80;99.90
15296;DHT22;7749;49.964;7.890;2023-03-03T12:30:53;14.80;95.30
15296;DHT22;7749;49.964;7.890;2023-03-03T12:44:49;15.90;1.00
15296;DHT22;7749;49.964;7.890;2023-03-03T12:47:28;16.50;1.00
15296;DHT22;7749;49.964;7.890;2023-03-03T12:58:43;17.90;1.00
15296;DHT22;7749;49.964;7.890;2023-03-03T13:01:36;17.30;1.00
15296;DHT22;7749;49.964;7.890;2023-03-03T13:04:35;17.70;1.00
15296;DHT22;7749;49.964;7.890;2023-03-03T13:07:09;16.90;1.00
15296;DHT22;7749;49.964;7.890;2023-03-03T13:12:53;17.20;1.00
15296;DHT22;7749;49.964;7.890;2023-03-03T13:19:26;19.20;1.00
15296;DHT22;7749;49.964;7.890;2023-03-03T13:21:54;18.50;1.00
15296;DHT22;7749;49.964;7.890;2023-03-03T13:27:19;17.80;1.00
15296;DHT22;7749;49.964;7.890;2023-03-03T13:29:58;18.20;1.00
15296;DHT22;7749;49.964;7.890;2023-03-03T13:32:52;18.80;1.00
15296;DHT22;7749;49.964;7.890;2023-03-03T13:38:12;18.50;1.00
15296;DHT22;7749;49.964;7.890;2023-03-03T13:40:47;18.90;1.00
15296;DHT22;7749;49.964;7.890;2023-03-03T13:43:21;18.60;1.00
15296;DHT22;7749;49.964;7.890;2023-03-03T13:49:03;18.80;1.00
15296;DHT22;7749;49.964;7.890;2023-03-03T13:56:34;19.30;1.00
15296;DHT22;7749;49.964;7.890;2023-03-03T13:59:11;19.80;1.00
15296;DHT22;7749;49.964;7.890;2023-03-03T14:07:40;20.30;1.00
15296;DHT22;7749;49.964;7.890;2023-03-03T14:10:22;19.40;1.00
15296;DHT22;7749;49.964;7.890;2023-03-03T14:13:02;19.90;1.00
15296;DHT22;7749;49.964;7.890;2023-03-03T14:15:34;20.00;1.00
15296;DHT22;7749;49.964;7.890;2023-03-03T14:20:50;17.90;1.00
15296;DHT22;7749;49.964;7.890;2023-03-03T14:23:26;17.80;1.00
15296;DHT22;7749;49.964;7.890;2023-03-03T14:26:08;18.30;1.00
15296;DHT22;7749;49.964;7.890;2023-03-03T14:28:42;18.80;1.00
15296;DHT22;7749;49.964;7.890;2023-03-03T14:36:31;19.50;1.00
15296;DHT22;7749;49.964;7.890;2023-03-03T14:39:00;17.60;1.00
15296;DHT22;7749;49.964;7.890;2023-03-03T14:41:37;17.20;1.00
15296;DHT22;7749;49.964;7.890;2023-03-03T14:47:21;18.70;1.00
15296;DHT22;7749;49.964;7.890;2023-03-03T14:49:50;18.50;1.00
15296;DHT22;7749;49.964;7.890;2023-03-03T14:52:21;17.80;1.00
15296;DHT22;7749;49.964;7.890;2023-03-03T14:55:00;17.60;1.00
15296;DHT22;7749;49.964;7.890;2023-03-03T15:02:42;19.00;1.00
15296;DHT22;7749;49.964;7.890;2023-03-03T15:05:24;19.20;1.00
15296;DHT22;7749;49.964;7.890;2023-03-03T15:07:53;19.20;1.00
15296;DHT22;7749;49.964;7.890;2023-03-03T15:10:33;18.80;1.00
15296;DHT22;7749;49.964;7.890;2023-03-03T15:16:16;17.30;1.00
15296;DHT22;7749;49.964;7.890;2023-03-03T15:19:23;16.10;1.00
15296;DHT22;7749;49.964;7.890;2023-03-03T15:22:25;15.20;1.00
15296;DHT22;7749;49.964;7.890;2023-03-03T15:25:11;16.00;1.00
15296;DHT22;7749;49.964;7.890;2023-03-03T15:27:57;16.20;1.00
15296;DHT22;7749;49.964;7.890;2023-03-03T15:30:53;16.00;1.00
15296;DHT22;7749;49.964;7.890;2023-03-03T15:39:29;16.20;1.00
15296;DHT22;7749;49.964;7.890;2023-03-03T16:01:37;9.20;92.00
15296;DHT22;7749;49.964;7.890;2023-03-03T16:04:13;8.90;93.40
15296;DHT22;7749;49.964;7.890;2023-03-03T16:18:52;8.00;99.90
15296;DHT22;7749;49.964;7.890;2023-03-03T16:23:54;8.00;99.90
15296;DHT22;7749;49.964;7.890;2023-03-03T16:32:43;7.50;99.90
15296;DHT22;7749;49.964;7.890;2023-03-03T16:35:33;7.50;99.90
15296;DHT22;7749;49.964;7.890;2023-03-03T16:38:17;7.50;99.90
15296;DHT22;7749;49.964;7.890;2023-03-03T16:40:55;7.30;99.90
15296;DHT22;7749;49.964;7.890;2023-03-03T16:46:40;7.20;99.90
15296;DHT22;7749;49.964;7.890;2023-03-03T16:54:59;7.10;99.90
15296;DHT22;7749;49.964;7.890;2023-03-03T17:00:20;6.70;99.90
15296;DHT22;7749;49.964;7.890;2023-03-03T17:02:57;6.60;99.90
15296;DHT22;7749;49.964;7.890;2023-03-03T17:05:35;6.70;99.90
15296;DHT22;7749;49.964;7.890;2023-03-03T17:08:37;6.60;99.90
15296;DHT22;7749;49.964;7.890;2023-03-03T17:19:23;6.30;99.90
15296;DHT22;7749;49.964;7.890;2023-03-03T17:22:22;6.20;99.90
15296;DHT22;7749;49.964;7.890;2023-03-03T17:30:52;6.10;99.90
15296;DHT22;7749;49.964;7.890;2023-03-03T17:36:37;6.00;99.90
15296;DHT22;7749;49.964;7.890;2023-03-03T17:42:10;5.70;99.90
15296;DHT22;7749;49.964;7.890;2023-03-03T17:45:10;5.70;99.90
15296;DHT22;7749;49.964;7.890;2023-03-03T17:47:56;5.60;99.90
15296;DHT22;7749;49.964;7.890;2023-03-03T17:59:14;5.40;99.90
15296;DHT22;7749;49.964;7.890;2023-03-03T18:08:05;5.20;99.90
15296;DHT22;7749;49.964;7.890;2023-03-03T18:24:53;4.80;99.90
15296;DHT22;7749;49.964;7.890;2023-03-03T18:27:37;4.80;99.90
15296;DHT22;7749;49.964;7.890;2023-03-03T18:30:29;4.80;99.90
15296;DHT22;7749;49.964;7.890;2023-03-03T18:33:08;4.70;99.90
15296;DHT22;7749;49.964;7.890;2023-03-03T18:35:39;4.80;99.90
15296;DHT22;7749;49.964;7.890;2023-03-03T18:40:57;4.60;99.90
15296;DHT22;7749;49.964;7.890;2023-03-03T18:49:06;4.50;99.90
15296;DHT22;7749;49.964;7.890;2023-03-03T19:04:55;4.20;99.90
15296;DHT22;7749;49.964;7.890;2023-03-03T19:07:44;4.10;99.90
15296;DHT22;7749;49.964;7.890;2023-03-03T20:16:27;3.10;99.90
15296;DHT22;7749;49.964;7.890;2023-03-03T20:22:39;3.10;99.90
15296;DHT22;7749;49.964;7.890;2023-03-03T20:27:59;3.00;99.90
15296;DHT22;7749;49.964;7.890;2023-03-03T20:39:37;2.90;99.90
15296;DHT22;7749;49.964;7.890;2023-03-03T20:42:37;2.80;99.90
15296;DHT22;7749;49.964;7.890;2023-03-03T20:59:55;2.70;99.90
15296;DHT22;7749;49.964;7.890;2023-03-03T21:05:11;2.70;99.90
15296;DHT22;7749;49.964;7.890;2023-03-03T21:07:54;2.70;99.90
15296;DHT22;7749;49.964;7.890;2023-03-03T21:10:25;2.70;99.90
15296;DHT22;7749;49.964;7.890;2023-03-03T21:12:55;2.70;99.90
15296;DHT22;7749;49.964;7.890;2023-03-03T21:15:31;2.60;99.90
15296;DHT22;7749;49.964;7.890;2023-03-03T21:18:21;2.60;99.90
15296;DHT22;7749;49.964;7.890;2023-03-03T21:20:53;2.60;99.90
15296;DHT22;7749;49.964;7.890;2023-03-03T21:23:21;2.70;99.90
15296;DHT22;7749;49.964;7.890;2023-03-03T21:25:54;2.70;99.90
15296;DHT22;7749;49.964;7.890;2023-03-03T21:28:31;2.60;99.90
15296;DHT22;7749;49.964;7.890;2023-03-03T21:33:41;2.70;99.90
15296;DHT22;7749;49.964;7.890;2023-03-03T21:36:13;2.70;99.90
15296;DHT22;7749;49.964;7.890;2023-03-03T21:38:41;2.60;99.90
15296;DHT22;7749;49.964;7.890;2023-03-03T21:41:09;2.60;99.90
15296;DHT22;7749;49.964;7.890;2023-03-03T21:43:39;2.60;99.90
15296;DHT22;7749;49.964;7.890;2023-03-03T21:46:10;2.60;99.90
15296;DHT22;7749;49.964;7.890;2023-03-03T21:48:39;2.60;99.90
15296;DHT22;7749;49.964;7.890;2023-03-03T21:51:09;2.60;99.90
15296;DHT22;7749;49.964;7.890;2023-03-03T21:53:40;2.60;99.90
15296;DHT22;7749;49.964;7.890;2023-03-03T21:56:09;2.50;99.90
15296;DHT22;7749;49.964;7.890;2023-03-03T21:58:41;2.50;99.90
15296;DHT22;7749;49.964;7.890;2023-03-03T22:01:09;2.50;99.90
15296;DHT22;7749;49.964;7.890;2023-03-03T22:03:43;2.50;99.90
15296;DHT22;7749;49.964;7.890;2023-03-03T22:06:12;2.50;99.90
15296;DHT22;7749;49.964;7.890;2023-03-03T22:08:40;2.50;99.90
15296;DHT22;7749;49.964;7.890;2023-03-03T22:11:08;2.50;99.90
15296;DHT22;7749;49.964;7.890;2023-03-03T22:13:36;2.40;99.90
15296;DHT22;7749;49.964;7.890;2023-03-03T22:16:06;2.40;99.90
15296;DHT22;7749;49.964;7.890;2023-03-03T22:18:34;2.40;99.90
15296;DHT22;7749;49.964;7.890;2023-03-03T22:21:03;2.40;99.90
15296;DHT22;7749;49.964;7.890;2023-03-03T22:23:32;2.40;99.90
15296;DHT22;7749;49.964;7.890;2023-03-03T22:26:00;2.40;99.90
15296;DHT22;7749;49.964;7.890;2023-03-03T22:28:28;2.40;99.90
15296;DHT22;7749;49.964;7.890;2023-03-03T22:30:56;2.40;99.90
15296;DHT22;7749;49.964;7.890;2023-03-03T22:33:25;2.40;99.90
15296;DHT22;7749;49.964;7.890;2023-03-03T22:35:53;2.40;99.90
15296;DHT22;7749;49.964;7.890;2023-03-03T22:38:20;2.40;99.90
15296;DHT22;7749;49.964;7.890;2023-03-03T22:40:51;2.40;99.90
15296;DHT22;7749;49.964;7.890;2023-03-03T22:43:22;2.40;99.90
15296;DHT22;7749;49.964;7.890;2023-03-03T22:45:50;2.40;99.90
15296;DHT22;7749;49.964;7.890;2023-03-03T22:48:18;2.50;99.90
15296;DHT22;7749;49.964;7.890;2023-03-03T22:50:46;2.50;99.90
15296;DHT22;7749;49.964;7.890;2023-03-03T22:53:14;2.50;99.90
15296;DHT22;7749;49.964;7.890;2023-03-03T22:55:42;2.50;99.90
15296;DHT22;7749;49.964;7.890;2023-03-03T22:58:10;2.40;99.90
15296;DHT22;7749;49.964;7.890;2023-03-03T23:00:40;2.50;99.90
15296;DHT22;7749;49.964;7.890;2023-03-03T23:03:09;2.50;99.90
15296;DHT22;7749;49.964;7.890;2023-03-03T23:05:38;2.50;99.90
15296;DHT22;7749;49.964;7.890;2023-03-03T23:08:08;2.50;99.90
15296;DHT22;7749;49.964;7.890;2023-03-03T23:10:36;2.50;99.90
15296;DHT22;7749;49.964;7.890;2023-03-03T23:13:04;2.50;99.90
15296;DHT22;7749;49.964;7.890;2023-03-03T23:15:32;2.50;99.90
15296;DHT22;7749;49.964;7.890;2023-03-03T23:18:01;2.40;99.90
15296;DHT22;7749;49.964;7.890;2023-03-03T23:20:30;2.50;99.90
15296;DHT22;7749;49.964;7.890;2023-03-03T23:22:59;2.40;99.90
15296;DHT22;7749;49.964;7.890;2023-03-03T23:25:27;2.40;99.90
15296;DHT22;7749;49.964;7.890;2023-03-03T23:27:56;2.50;99.90
15296;DHT22;7749;49.964;7.890;2023-03-03T23:30:24;2.50;99.90
15296;DHT22;7749;49.964;7.890;2023-03-03T23:32:52;2.40;99.90
15296;DHT22;7749;49.964;7.890;2023-03-03T23:35:20;2.40;99.90
15296;DHT22;7749;49.964;7.890;2023-03-03T23:37:48;2.30;99.90
15296;DHT22;7749;49.964;7.890;2023-03-03T23:40:16;2.40;99.90
15296;DHT22;7749;49.964;7.890;2023-03-03T23:42:44;2.40;99.90
15296;DHT22;7749;49.964;7.890;2023-03-03T23:45:12;2.30;99.90
15296;DHT22;7749;49.964;7.890;2023-03-03T23:47:41;2.20;99.90